createdAt,value
2022-08-30T00:02:26.033Z,4.60
2022-08-30T00:04:55.326Z,6.33
2022-08-30T00:07:23.999Z,6.90
2022-08-30T00:09:52.441Z,6.10
2022-08-30T00:12:21.308Z,5.73
2022-08-30T00:14:49.854Z,5.10
2022-08-30T00:17:19.403Z,6.37
2022-08-30T00:19:47.910Z,5.43
2022-08-30T00:22:16.392Z,7.07
2022-08-30T00:24:44.846Z,7.17
2022-08-30T00:27:13.184Z,5.53
2022-08-30T00:29:41.623Z,6.37
2022-08-30T00:32:10.089Z,6.37
2022-08-30T00:34:38.641Z,5.43
2022-08-30T00:37:07.031Z,6.53
2022-08-30T00:39:35.495Z,7.03
2022-08-30T00:42:04.161Z,7.57
2022-08-30T00:44:32.608Z,6.80
2022-08-30T00:47:01.343Z,6.63
2022-08-30T00:49:31.056Z,6.67
2022-08-30T00:51:59.856Z,5.10
2022-08-30T00:54:29.264Z,8.27
2022-08-30T00:56:57.750Z,5.90
2022-08-30T00:59:27.723Z,4.97
2022-08-30T01:01:56.199Z,5.40
2022-08-30T01:04:27.240Z,4.60
2022-08-30T01:06:55.914Z,5.00
2022-08-30T01:09:25.136Z,7.10
2022-08-30T01:11:53.670Z,6.87
2022-08-30T01:14:25.927Z,7.23
2022-08-30T01:16:57.858Z,4.47
2022-08-30T01:19:40.468Z,5.13
2022-08-30T01:22:29.714Z,5.90
2022-08-30T01:25:01.188Z,6.67
2022-08-30T01:27:31.127Z,7.43
2022-08-30T01:30:00.496Z,7.00
2022-08-30T01:32:30.976Z,5.57
2022-08-30T01:34:59.614Z,7.30
2022-08-30T01:37:32.731Z,8.57
2022-08-30T01:40:01.560Z,6.63
2022-08-30T01:42:30.308Z,6.07
2022-08-30T01:44:58.729Z,6.83
2022-08-30T01:47:27.627Z,5.93
2022-08-30T01:49:55.816Z,6.80
2022-08-30T01:52:24.219Z,6.17
2022-08-30T01:54:53.068Z,5.00
2022-08-30T01:57:26.844Z,8.93
2022-08-30T01:59:55.582Z,8.23
2022-08-30T02:02:29.694Z,7.17
2022-08-30T02:04:58.663Z,6.53
2022-08-30T02:07:27.450Z,5.23
2022-08-30T02:09:56.792Z,6.67
2022-08-30T02:12:25.939Z,5.40
2022-08-30T02:14:54.402Z,8.37
2022-08-30T02:17:22.996Z,6.17
2022-08-30T02:19:51.478Z,5.00
2022-08-30T02:22:20.995Z,7.90
2022-08-30T02:24:49.425Z,6.67
2022-08-30T02:27:17.859Z,6.20
2022-08-30T02:29:46.248Z,8.50
2022-08-30T02:32:14.667Z,6.70
2022-08-30T02:34:43.116Z,8.97
2022-08-30T02:37:11.890Z,8.30
2022-08-30T02:39:40.430Z,8.13
2022-08-30T02:42:08.876Z,7.60
2022-08-30T02:44:37.289Z,6.20
2022-08-30T02:47:06.156Z,7.87
2022-08-30T02:49:34.551Z,6.27
2022-08-30T02:52:05.910Z,7.20
2022-08-30T02:54:34.620Z,7.53
2022-08-30T02:57:05.224Z,7.00
2022-08-30T02:59:37.007Z,5.10
2022-08-30T03:02:05.562Z,7.70
2022-08-30T03:04:33.934Z,7.40
2022-08-30T03:07:02.368Z,5.70
2022-08-30T03:09:30.756Z,5.33
2022-08-30T03:11:59.241Z,8.43
2022-08-30T03:14:28.193Z,5.67
2022-08-30T03:16:56.902Z,7.53
2022-08-30T03:19:26.114Z,6.63
2022-08-30T03:21:54.565Z,5.77
2022-08-30T03:24:22.994Z,6.53
2022-08-30T03:26:51.380Z,6.23
2022-08-30T03:29:20.063Z,6.43
2022-08-30T03:31:53.107Z,7.00
2022-08-30T03:34:22.866Z,7.77
2022-08-30T03:36:52.836Z,5.63
2022-08-30T03:39:22.086Z,7.93
2022-08-30T03:41:50.625Z,6.63
2022-08-30T03:44:20.905Z,6.90
2022-08-30T03:46:50.478Z,6.90
2022-08-30T03:49:19.761Z,6.57
2022-08-30T03:51:48.574Z,5.80
2022-08-30T03:54:17.627Z,9.27
2022-08-30T03:56:46.260Z,7.37
2022-08-30T03:59:14.857Z,6.07
2022-08-30T04:01:45.635Z,7.27
2022-08-30T04:04:18.617Z,7.30
2022-08-30T04:06:49.376Z,7.87
2022-08-30T04:09:18.177Z,6.67
2022-08-30T04:11:46.595Z,8.93
2022-08-30T04:14:15.106Z,7.60
2022-08-30T04:16:43.628Z,8.47
2022-08-30T04:19:12.220Z,8.33
2022-08-30T04:21:43.317Z,9.43
2022-08-30T04:24:13.036Z,6.27
2022-08-30T04:26:41.574Z,6.47
2022-08-30T04:29:11.756Z,5.60
2022-08-30T04:31:40.307Z,7.83
2022-08-30T04:34:10.161Z,6.03
2022-08-30T04:36:38.591Z,6.53
2022-08-30T04:39:07.747Z,6.70
2022-08-30T04:41:40.904Z,11.23
2022-08-30T04:44:14.248Z,7.33
2022-08-30T04:46:48.200Z,6.33
2022-08-30T04:49:16.808Z,8.50
2022-08-30T04:51:45.244Z,7.10
2022-08-30T04:54:13.930Z,7.87
2022-08-30T04:56:43.768Z,6.17
2022-08-30T04:59:12.166Z,6.47
2022-08-30T05:01:45.356Z,6.27
2022-08-30T05:04:15.478Z,6.10
2022-08-30T05:06:44.368Z,8.10
2022-08-30T05:09:13.078Z,7.50
2022-08-30T05:11:43.317Z,6.00
2022-08-30T05:14:11.818Z,9.37
2022-08-30T05:16:41.616Z,7.03
2022-08-30T05:19:10.192Z,6.90
2022-08-30T05:21:40.657Z,10.10
2022-08-30T05:24:09.998Z,10.97
2022-08-30T05:26:39.960Z,8.07
2022-08-30T05:29:08.422Z,7.20
2022-08-30T05:31:38.151Z,7.53
2022-08-30T05:34:06.781Z,8.00
2022-08-30T05:36:37.776Z,10.67
2022-08-30T05:39:10.846Z,8.80
2022-08-30T05:41:40.948Z,9.20
2022-08-30T05:44:11.608Z,8.93
2022-08-30T05:46:45.696Z,7.23
2022-08-30T05:49:14.127Z,10.27
2022-08-30T05:51:43.412Z,8.63
2022-08-30T05:54:13.360Z,8.37
2022-08-30T05:56:44.477Z,8.63
2022-08-30T05:59:13.532Z,7.80
2022-08-30T06:01:46.371Z,6.73
2022-08-30T06:04:15.544Z,8.73
2022-08-30T06:06:45.579Z,8.73
2022-08-30T06:09:15.919Z,7.03
2022-08-30T06:11:45.768Z,10.13
2022-08-30T06:14:14.749Z,9.07
2022-08-30T06:16:45.814Z,9.00
2022-08-30T06:19:15.731Z,8.30
2022-08-30T06:21:49.011Z,9.07
2022-08-30T06:24:17.537Z,8.23
2022-08-30T06:26:48.306Z,8.20
2022-08-30T06:29:21.171Z,6.83
2022-08-30T06:31:50.171Z,6.80
2022-08-30T06:34:19.113Z,6.70
2022-08-30T06:36:47.537Z,9.10
2022-08-30T06:39:16.018Z,8.10
2022-08-30T06:41:44.697Z,10.33
2022-08-30T06:44:13.291Z,17.27
2022-08-30T06:46:41.730Z,11.00
2022-08-30T06:49:10.226Z,8.43
2022-08-30T06:51:40.672Z,9.37
2022-08-30T06:54:11.974Z,9.23
2022-08-30T06:56:55.247Z,8.80
2022-08-30T06:59:26.023Z,7.70
2022-08-30T07:01:56.291Z,9.40
2022-08-30T07:04:24.902Z,11.23
2022-08-30T07:06:53.377Z,9.83
2022-08-30T07:09:23.005Z,8.67
2022-08-30T07:11:52.761Z,7.40
2022-08-30T07:14:22.176Z,10.10
2022-08-30T07:16:51.248Z,7.20
2022-08-30T07:19:20.979Z,12.90
2022-08-30T07:21:50.495Z,13.77
2022-08-30T07:24:19.841Z,10.83
2022-08-30T07:26:52.053Z,11.47
2022-08-30T07:29:21.590Z,9.63
2022-08-30T07:31:50.064Z,9.37
2022-08-30T07:34:20.551Z,9.97
2022-08-30T07:36:50.867Z,9.20
2022-08-30T07:39:19.240Z,10.80
2022-08-30T07:41:48.772Z,8.67
2022-08-30T07:44:17.383Z,7.70
2022-08-30T07:46:45.869Z,13.27
2022-08-30T07:49:14.432Z,10.83
2022-08-30T07:51:43.010Z,13.57
2022-08-30T07:54:11.453Z,9.13
2022-08-30T07:56:39.864Z,6.87
2022-08-30T07:59:08.419Z,10.33
2022-08-30T08:01:36.844Z,7.10
2022-08-30T08:04:05.012Z,9.10
2022-08-30T08:06:34.736Z,12.80
2022-08-30T08:09:03.835Z,8.93
2022-08-30T08:11:33.926Z,7.90
2022-08-30T08:14:03.291Z,9.07
2022-08-30T08:16:36.685Z,9.73
2022-08-30T08:19:08.900Z,11.03
2022-08-30T08:21:38.055Z,11.60
2022-08-30T08:24:07.614Z,7.30
2022-08-30T08:26:38.365Z,6.43
2022-08-30T08:29:11.087Z,6.73
2022-08-30T08:31:41.388Z,8.40
2022-08-30T08:34:11.707Z,9.00
2022-08-30T08:36:40.403Z,9.53
2022-08-30T08:39:10.672Z,11.33
2022-08-30T08:42:22.191Z,12.70
2022-08-30T08:45:19.525Z,10.63
2022-08-30T08:48:05.127Z,9.97
2022-08-30T08:50:34.014Z,13.37
2022-08-30T08:53:45.431Z,13.53
2022-08-30T08:56:17.935Z,11.57
2022-08-30T08:58:56.189Z,8.43
2022-08-30T09:01:29.260Z,9.87
2022-08-30T09:04:00.292Z,10.43
2022-08-30T09:06:57.004Z,7.63
2022-08-30T09:09:38.986Z,6.67
2022-08-30T09:12:11.974Z,6.20
2022-08-30T09:14:54.513Z,9.10
2022-08-30T09:17:24.387Z,5.27
2022-08-30T09:19:55.609Z,4.33
2022-08-30T09:25:32.552Z,5.23
2022-08-30T09:28:16.263Z,5.60
2022-08-30T09:31:01.926Z,4.57
2022-08-30T09:33:30.510Z,4.00
2022-08-30T09:35:59.260Z,5.63
2022-08-30T09:38:34.726Z,6.33
2022-08-30T09:41:54.743Z,8.77
2022-08-30T09:44:29.647Z,9.93
2022-08-30T09:47:01.307Z,8.67
2022-08-30T09:49:29.793Z,9.00
2022-08-30T09:52:14.826Z,7.03
2022-08-30T09:55:20.210Z,8.90
2022-08-30T09:58:48.381Z,8.17
2022-08-30T10:01:30.380Z,6.60
2022-08-30T10:04:18.526Z,5.60
2022-08-30T10:07:29.013Z,8.27
2022-08-30T10:10:14.540Z,6.30
2022-08-30T10:13:06.968Z,7.83
2022-08-30T10:15:47.534Z,6.97
2022-08-30T10:18:33.698Z,6.77
2022-08-30T10:21:26.450Z,10.27
2022-08-30T10:24:09.055Z,9.70
2022-08-30T10:26:38.462Z,8.70
2022-08-30T10:29:41.890Z,6.00
2022-08-30T10:32:28.340Z,7.53
2022-08-30T10:35:08.038Z,5.93
2022-08-30T10:37:44.018Z,6.23
2022-08-30T10:40:53.714Z,5.83
2022-08-30T10:44:01.405Z,5.77
2022-08-30T10:46:57.477Z,6.47
2022-08-30T10:49:30.449Z,6.97
2022-08-30T10:52:13.663Z,4.40
2022-08-30T10:55:23.042Z,5.13
2022-08-30T10:57:52.196Z,6.13
2022-08-30T11:00:32.694Z,5.87
2022-08-30T11:03:12.074Z,4.50
2022-08-30T11:05:49.296Z,4.67
2022-08-30T11:08:45.038Z,4.63
2022-08-30T11:11:31.297Z,3.40
2022-08-30T11:14:05.455Z,5.47
2022-08-30T11:16:41.924Z,4.50
2022-08-30T11:19:32.342Z,6.30
2022-08-30T11:22:26.902Z,6.23
2022-08-30T11:25:18.332Z,4.67
2022-08-30T11:27:55.341Z,3.83
2022-08-30T11:30:27.137Z,6.00
2022-08-30T11:33:13.880Z,6.57
2022-08-30T11:35:47.394Z,5.43
2022-08-30T11:38:36.417Z,4.23
2022-08-30T11:41:41.472Z,6.00
2022-08-30T11:44:22.567Z,5.20
2022-08-30T11:46:56.217Z,6.27
2022-08-30T11:49:33.549Z,6.37
2022-08-30T11:52:44.136Z,4.53
2022-08-30T11:55:41.092Z,6.63
2022-08-30T11:58:55.348Z,6.43
2022-08-30T12:01:50.981Z,5.77
2022-08-30T12:04:37.439Z,10.20
2022-08-30T12:07:09.931Z,3.30
2022-08-30T12:09:38.281Z,3.60
2022-08-30T12:12:08.421Z,4.30
2022-08-30T12:14:54.732Z,4.87
2022-08-30T12:18:16.091Z,5.03
2022-08-30T12:20:45.889Z,3.90
2022-08-30T12:23:44.492Z,7.57
2022-08-30T12:26:32.330Z,4.17
2022-08-30T12:29:26.681Z,4.97
2022-08-30T12:32:25.776Z,4.37
2022-08-30T12:34:55.331Z,4.67
2022-08-30T12:37:28.077Z,8.03
2022-08-30T12:40:21.328Z,5.43
2022-08-30T12:43:04.740Z,4.07
2022-08-30T12:45:50.934Z,5.73
2022-08-30T12:48:21.609Z,5.53
2022-08-30T12:51:01.320Z,3.70
2022-08-30T12:53:42.062Z,4.47
2022-08-30T12:56:14.858Z,4.30
2022-08-30T12:58:49.631Z,4.73
2022-08-30T13:01:32.423Z,4.67
2022-08-30T13:04:04.777Z,3.80
2022-08-30T13:06:52.031Z,5.60
2022-08-30T13:09:34.680Z,5.50
2022-08-30T13:12:07.145Z,5.90
2022-08-30T13:14:45.614Z,4.53
2022-08-30T13:17:20.303Z,4.80
2022-08-30T13:20:21.344Z,5.63
2022-08-30T13:23:10.699Z,5.13
2022-08-30T13:25:40.708Z,4.27
2022-08-30T13:28:09.250Z,4.83
2022-08-30T13:30:38.935Z,6.47
2022-08-30T13:33:10.059Z,4.90
2022-08-30T13:35:38.526Z,4.80
2022-08-30T13:38:07.525Z,4.37
2022-08-30T13:40:36.575Z,5.80
2022-08-30T13:43:05.063Z,4.87
2022-08-30T13:45:41.360Z,5.43
2022-08-30T13:48:11.844Z,4.30
2022-08-30T13:50:40.962Z,5.10
2022-08-30T13:53:10.147Z,4.43
2022-08-30T13:55:40.003Z,4.67
2022-08-30T13:58:09.482Z,5.77
2022-08-30T14:00:38.223Z,5.13
2022-08-30T14:03:07.117Z,4.53
2022-08-30T14:05:49.468Z,4.23
2022-08-30T14:11:19.490Z,4.80
2022-08-30T14:16:43.537Z,4.00
2022-08-30T14:19:14.526Z,5.17
2022-08-30T14:21:43.402Z,4.53
2022-08-30T14:24:15.153Z,4.37
2022-08-30T14:26:51.908Z,5.37
2022-08-30T14:29:26.002Z,5.63
2022-08-30T14:31:54.907Z,3.60
2022-08-30T14:34:24.117Z,5.00
2022-08-30T14:36:52.535Z,3.43
2022-08-30T14:39:22.429Z,4.10
2022-08-30T14:41:55.313Z,4.20
2022-08-30T14:44:25.859Z,4.70
2022-08-30T14:46:54.636Z,3.90
2022-08-30T14:49:23.497Z,5.10
2022-08-30T14:51:52.208Z,3.80
2022-08-30T14:54:25.985Z,5.90
2022-08-30T14:56:55.397Z,12.60
2022-08-30T14:59:24.361Z,6.40
2022-08-30T15:01:52.830Z,3.73
2022-08-30T15:04:21.774Z,5.33
2022-08-30T15:06:51.093Z,5.20
2022-08-30T15:09:24.659Z,5.70
2022-08-30T15:11:58.528Z,5.67
2022-08-30T15:14:28.296Z,5.23
2022-08-30T15:16:58.301Z,4.67
2022-08-30T15:19:27.577Z,4.90
2022-08-30T15:21:59.569Z,6.73
2022-08-30T15:24:30.160Z,4.20
2022-08-30T15:27:02.469Z,4.70
2022-08-30T15:29:32.035Z,5.93
2022-08-30T15:32:02.131Z,4.60
2022-08-30T15:34:31.242Z,6.33
2022-08-30T15:36:59.915Z,4.93
2022-08-30T15:39:29.499Z,6.07
2022-08-30T15:42:00.939Z,3.53
2022-08-30T15:44:32.725Z,4.10
2022-08-30T15:47:03.234Z,4.00
2022-08-30T15:49:31.720Z,3.93
2022-08-30T15:52:03.485Z,4.23
2022-08-30T15:54:32.282Z,6.60
2022-08-30T15:57:01.299Z,4.03
2022-08-30T15:59:32.789Z,7.93
2022-08-30T16:02:01.457Z,3.60
2022-08-30T16:04:29.962Z,4.10
2022-08-30T16:06:58.412Z,3.73
2022-08-30T16:09:30.090Z,3.90
2022-08-30T16:12:01.905Z,5.57
2022-08-30T16:14:30.509Z,7.03
2022-08-30T16:16:59.747Z,5.33
2022-08-30T16:19:29.001Z,3.60
2022-08-30T16:21:57.571Z,5.17
2022-08-30T16:24:26.129Z,3.80
2022-08-30T16:26:54.907Z,3.83
2022-08-30T16:29:23.622Z,3.30
2022-08-30T16:31:52.127Z,3.50
2022-08-30T16:34:21.761Z,4.87
2022-08-30T16:36:50.207Z,8.63
2022-08-30T16:39:18.881Z,3.43
2022-08-30T16:41:48.769Z,4.03
2022-08-30T16:44:17.800Z,4.43
2022-08-30T16:46:53.367Z,3.77
2022-08-30T16:49:23.278Z,4.63
2022-08-30T16:51:53.953Z,3.97
2022-08-30T16:54:23.134Z,5.50
2022-08-30T16:56:51.742Z,3.97
2022-08-30T16:59:20.230Z,3.60
2022-08-30T17:01:49.248Z,3.53
2022-08-30T17:04:19.377Z,4.63
2022-08-30T17:06:50.520Z,4.07
2022-08-30T17:09:19.700Z,4.60
2022-08-30T17:11:48.883Z,4.90
2022-08-30T17:17:22.077Z,3.17
2022-08-30T17:19:50.630Z,5.50
2022-08-30T17:22:19.050Z,3.53
2022-08-30T17:25:08.479Z,3.43
2022-08-30T17:27:37.543Z,3.60
2022-08-30T17:30:10.414Z,3.60
2022-08-30T17:32:38.849Z,5.97
2022-08-30T17:35:08.987Z,3.70
2022-08-30T17:37:38.246Z,3.90
2022-08-30T17:40:07.515Z,4.27
2022-08-30T17:42:44.647Z,4.10
2022-08-30T17:45:15.293Z,3.60
2022-08-30T17:47:44.099Z,3.40
2022-08-30T17:50:13.057Z,3.37
2022-08-30T17:52:42.006Z,2.87
2022-08-30T17:55:10.976Z,3.90
2022-08-30T17:57:41.915Z,2.67
2022-08-30T18:00:15.676Z,3.13
2022-08-30T18:02:44.792Z,2.73
2022-08-30T18:05:14.064Z,3.50
2022-08-30T18:07:42.485Z,3.03
2022-08-30T18:10:13.419Z,3.37
2022-08-30T18:12:41.851Z,2.60
2022-08-30T18:15:12.322Z,2.73
2022-08-30T18:17:42.994Z,4.37
2022-08-30T18:20:12.025Z,4.17
2022-08-30T18:22:40.554Z,3.43
2022-08-30T18:25:09.899Z,2.60
2022-08-30T18:27:41.307Z,3.00
2022-08-30T18:30:14.898Z,2.60
2022-08-30T18:32:43.328Z,3.57
2022-08-30T18:35:11.794Z,3.87
2022-08-30T18:37:40.737Z,2.87
2022-08-30T18:40:09.838Z,2.70
2022-08-30T18:42:40.725Z,2.40
2022-08-30T18:45:15.044Z,2.33
2022-08-30T18:47:43.943Z,2.57
2022-08-30T18:50:12.849Z,5.53
2022-08-30T18:52:41.294Z,3.53
2022-08-30T18:55:13.509Z,3.27
2022-08-30T18:57:41.975Z,4.37
2022-08-30T19:00:11.867Z,4.10
2022-08-30T19:02:43.544Z,2.80
2022-08-30T19:05:12.853Z,4.40
2022-08-30T19:07:41.484Z,4.90
2022-08-30T19:10:12.280Z,2.60
2022-08-30T19:12:41.176Z,2.57
2022-08-30T19:15:11.791Z,2.80
2022-08-30T19:17:43.601Z,3.23
2022-08-30T19:20:16.864Z,3.77
2022-08-30T19:23:08.554Z,3.07
2022-08-30T19:25:33.777Z,2.93
2022-08-30T19:28:02.226Z,3.77
2022-08-30T19:30:34.477Z,3.20
2022-08-30T19:33:03.239Z,3.10
2022-08-30T19:35:31.843Z,2.90
2022-08-30T19:38:00.366Z,3.40
2022-08-30T19:40:29.686Z,3.03
2022-08-30T19:43:01.850Z,5.10
2022-08-30T19:45:30.293Z,3.80
2022-08-30T19:48:02.215Z,3.33
2022-08-30T19:50:30.630Z,2.90
2022-08-30T19:52:59.426Z,3.70
2022-08-30T19:55:31.328Z,3.40
2022-08-30T19:58:00.283Z,3.50
2022-08-30T20:00:31.030Z,3.30
2022-08-30T20:03:01.357Z,7.77
2022-08-30T20:05:30.848Z,3.33
2022-08-30T20:07:59.768Z,4.33
2022-08-30T20:10:28.351Z,2.83
2022-08-30T20:12:56.998Z,3.23
2022-08-30T20:15:26.331Z,3.80
2022-08-30T20:18:14.047Z,3.40
2022-08-30T20:20:49.438Z,4.60
2022-08-30T20:26:07.479Z,5.20
2022-08-30T20:28:35.947Z,2.87
2022-08-30T20:31:06.741Z,3.10
2022-08-30T20:33:37.517Z,5.80
2022-08-30T20:36:09.720Z,5.90
2022-08-30T20:38:38.627Z,3.30
2022-08-30T20:41:16.692Z,5.13
2022-08-30T20:43:45.790Z,3.33
2022-08-30T20:46:17.906Z,6.90
2022-08-30T20:48:47.007Z,6.00
2022-08-30T20:51:19.397Z,4.17
2022-08-30T20:53:47.861Z,3.70
2022-08-30T20:56:21.744Z,3.37
2022-08-30T20:58:51.231Z,3.40
2022-08-30T21:01:20.260Z,3.47
2022-08-30T21:03:50.897Z,3.57
2022-08-30T21:06:19.385Z,3.43
2022-08-30T21:08:47.739Z,3.90
2022-08-30T21:11:16.372Z,5.63
2022-08-30T21:13:44.806Z,4.40
2022-08-30T21:16:13.221Z,3.50
2022-08-30T21:18:41.674Z,3.93
2022-08-30T21:21:21.285Z,3.70
2022-08-30T21:23:50.884Z,5.13
2022-08-30T21:26:20.922Z,3.53
2022-08-30T21:28:54.364Z,3.10
2022-08-30T21:31:28.854Z,6.80
2022-08-30T21:33:58.001Z,4.87
2022-08-30T21:36:45.878Z,4.70
2022-08-30T21:39:34.115Z,3.60
2022-08-30T21:42:02.665Z,4.47
2022-08-30T21:44:31.036Z,3.10
2022-08-30T21:46:59.721Z,3.43
2022-08-30T21:49:28.270Z,2.80
2022-08-30T21:51:56.854Z,3.03
2022-08-30T21:54:28.347Z,4.97
2022-08-30T21:57:01.838Z,2.80
2022-08-30T21:59:30.592Z,3.70
2022-08-30T22:01:59.830Z,2.77
2022-08-30T22:04:29.444Z,3.27
2022-08-30T22:06:57.808Z,3.53
2022-08-30T22:09:26.966Z,4.57
2022-08-30T22:11:55.822Z,2.50
2022-08-30T22:14:25.060Z,3.47
2022-08-30T22:16:55.095Z,4.73
2022-08-30T22:19:23.755Z,4.00
2022-08-30T22:22:00.696Z,5.07
2022-08-30T22:24:32.208Z,4.37
2022-08-30T22:27:02.703Z,5.73
2022-08-30T22:29:31.260Z,2.93
2022-08-30T22:32:00.088Z,6.33
2022-08-30T22:34:28.798Z,2.90
2022-08-30T22:36:57.175Z,3.17
2022-08-30T22:39:25.594Z,2.70
2022-08-30T22:41:54.178Z,3.97
2022-08-30T22:44:22.841Z,2.97
2022-08-30T22:46:51.652Z,3.50
2022-08-30T22:49:20.820Z,2.97
2022-08-30T22:51:49.410Z,2.80
2022-08-30T22:54:18.051Z,3.73
2022-08-30T22:56:46.845Z,4.37
2022-08-30T22:59:15.416Z,3.13
2022-08-30T23:01:44.806Z,3.80
2022-08-30T23:04:13.943Z,2.60
2022-08-30T23:06:49.728Z,3.13
2022-08-30T23:09:18.999Z,4.80
2022-08-30T23:11:49.489Z,2.83
2022-08-30T23:14:17.887Z,2.77
2022-08-30T23:16:46.932Z,3.27
2022-08-30T23:19:16.174Z,3.93
2022-08-30T23:21:44.635Z,2.83
2022-08-30T23:24:30.546Z,4.73
2022-08-30T23:27:16.314Z,3.30
2022-08-30T23:30:02.038Z,2.83
2022-08-30T23:32:48.045Z,3.63
2022-08-30T23:35:33.846Z,5.13
2022-08-30T23:38:24.042Z,3.50
2022-08-30T23:41:09.876Z,4.67
2022-08-30T23:43:56.261Z,3.10
2022-08-30T23:46:42.115Z,4.70
2022-08-30T23:49:28.012Z,2.93
2022-08-30T23:52:14.296Z,3.47
2022-08-30T23:55:00.189Z,3.03
2022-08-30T23:57:46.522Z,3.07
